CheckWX is a tool to help pilots better visualize weather data.  It is not intended as a substitute for an official pre-flight weather briefing.

17:24:36 UTC

KHYA METAR
Barnstable Municipal-Boardman / Polando Field Airport
Hyannis, Massachusetts, USA
Current

29 mins ago

KHYA 181656Z 35006KT 10SM BKN009 BKN015 OVC034 26/22 A2992
Observed
Jul-18 @ 16:56 UTC
Wind
  • 350° at 6 KTS
Visibility
10 SM
Flight Rules
IFR
Cloud Levels
  • Broken at 900' AGL
  • Broken at 1,500' AGL
  • Overcast at 3,400' AGL
Temperature
26°C / 79°F
Dewpoint
22°C / 72°F
Humidity
79%
Altimeter
29.92" Hg
Pressure
1013.22 hPa
Previous

1 hour ago

KHYA 181556Z 01004KT 10SM BKN009 BKN015 OVC034 26/22 A2992 RMK AO2 SLP149 T02560222
Observed
Jul-18 @ 15:56 UTC
Wind
  • 010° at 4 KTS
Visibility
10 SM
Flight Rules
IFR
Cloud Levels
  • Broken at 900' AGL
  • Broken at 1,500' AGL
  • Overcast at 3,400' AGL
Temperature
26°C / 79°F
Dewpoint
22°C / 72°F
Humidity
79%
Altimeter
29.92" Hg
Pressure
1013.22 hPa
Previous

2 hours ago

KHYA 181456Z 03005KT 10SM BKN008 BKN013 OVC024 26/22 A2993 RMK AO2 SLP152 60004 T02560222 51003 $
Observed
Jul-18 @ 14:56 UTC
Wind
  • 030° at 5 KTS
Visibility
10 SM
Flight Rules
IFR
Cloud Levels
  • Broken at 800' AGL
  • Broken at 1,300' AGL
  • Overcast at 2,400' AGL
Temperature
26°C / 79°F
Dewpoint
22°C / 72°F
Humidity
79%
Altimeter
29.93" Hg
Pressure
1013.52 hPa